sensor_id;sensor_type;location;lat;lon;timestamp;temperature;humidity
13354;DHT22;6746;50.892;4.064;2022-10-22T00:01:24;14.90;99.90
13354;DHT22;6746;50.892;4.064;2022-10-22T00:04:02;14.90;99.90
13354;DHT22;6746;50.892;4.064;2022-10-22T00:06:40;14.90;99.90
13354;DHT22;6746;50.892;4.064;2022-10-22T00:09:26;15.00;99.90
13354;DHT22;6746;50.892;4.064;2022-10-22T00:12:04;15.00;99.90
13354;DHT22;6746;50.892;4.064;2022-10-22T00:14:52;14.90;99.90
13354;DHT22;6746;50.892;4.064;2022-10-22T00:17:40;14.90;99.90
13354;DHT22;6746;50.892;4.064;2022-10-22T00:20:28;14.80;99.90
13354;DHT22;6746;50.892;4.064;2022-10-22T00:23:16;14.90;99.90
13354;DHT22;6746;50.892;4.064;2022-10-22T00:26:02;14.80;99.90
13354;DHT22;6746;50.892;4.064;2022-10-22T00:28:41;14.80;99.90
13354;DHT22;6746;50.892;4.064;2022-10-22T00:31:29;14.80;99.90
13354;DHT22;6746;50.892;4.064;2022-10-22T00:34:17;14.80;99.90
13354;DHT22;6746;50.892;4.064;2022-10-22T00:36:58;14.80;99.90
13354;DHT22;6746;50.892;4.064;2022-10-22T00:39:35;14.90;99.90
13354;DHT22;6746;50.892;4.064;2022-10-22T00:42:23;14.80;99.90
13354;DHT22;6746;50.892;4.064;2022-10-22T00:45:05;14.80;99.90
13354;DHT22;6746;50.892;4.064;2022-10-22T00:50:41;14.80;99.90
13354;DHT22;6746;50.892;4.064;2022-10-22T00:56:19;14.70;99.90
13354;DHT22;6746;50.892;4.064;2022-10-22T00:59:07;14.80;99.90
13354;DHT22;6746;50.892;4.064;2022-10-22T01:01:45;14.90;99.90
13354;DHT22;6746;50.892;4.064;2022-10-22T01:04:24;14.90;99.90
13354;DHT22;6746;50.892;4.064;2022-10-22T01:07:14;14.80;99.90
13354;DHT22;6746;50.892;4.064;2022-10-22T01:10:19;14.70;99.90
13354;DHT22;6746;50.892;4.064;2022-10-22T01:12:49;14.70;99.90
13354;DHT22;6746;50.892;4.064;2022-10-22T01:16:01;14.60;99.90
13354;DHT22;6746;50.892;4.064;2022-10-22T01:31:17;14.50;99.90
13354;DHT22;6746;50.892;4.064;2022-10-22T01:33:55;14.40;99.90
13354;DHT22;6746;50.892;4.064;2022-10-22T01:36:33;14.40;99.90
13354;DHT22;6746;50.892;4.064;2022-10-22T01:39:14;14.40;99.90
13354;DHT22;6746;50.892;4.064;2022-10-22T01:41:55;14.30;99.90
13354;DHT22;6746;50.892;4.064;2022-10-22T01:44:33;14.40;99.90
13354;DHT22;6746;50.892;4.064;2022-10-22T01:47:15;14.40;99.90
13354;DHT22;6746;50.892;4.064;2022-10-22T01:55:45;14.30;99.90
13354;DHT22;6746;50.892;4.064;2022-10-22T02:01:26;14.30;99.90
13354;DHT22;6746;50.892;4.064;2022-10-22T02:04:25;14.30;99.90
13354;DHT22;6746;50.892;4.064;2022-10-22T02:07:04;14.30;99.90
13354;DHT22;6746;50.892;4.064;2022-10-22T02:09:40;14.20;99.90
13354;DHT22;6746;50.892;4.064;2022-10-22T02:12:18;14.20;99.90
13354;DHT22;6746;50.892;4.064;2022-10-22T02:15:04;14.20;99.90
13354;DHT22;6746;50.892;4.064;2022-10-22T02:17:43;14.10;99.90
13354;DHT22;6746;50.892;4.064;2022-10-22T02:20:31;14.00;99.90
13354;DHT22;6746;50.892;4.064;2022-10-22T02:23:19;14.00;99.90
13354;DHT22;6746;50.892;4.064;2022-10-22T02:25:59;13.90;99.90
13354;DHT22;6746;50.892;4.064;2022-10-22T02:28:49;13.90;99.90
13354;DHT22;6746;50.892;4.064;2022-10-22T02:31:32;13.90;99.90
13354;DHT22;6746;50.892;4.064;2022-10-22T02:34:11;13.90;99.90
13354;DHT22;6746;50.892;4.064;2022-10-22T02:36:48;13.90;99.90
13354;DHT22;6746;50.892;4.064;2022-10-22T02:39:28;13.90;99.90
13354;DHT22;6746;50.892;4.064;2022-10-22T02:42:07;13.90;99.90
13354;DHT22;6746;50.892;4.064;2022-10-22T02:44:45;13.90;99.90
13354;DHT22;6746;50.892;4.064;2022-10-22T02:47:28;13.90;99.90
13354;DHT22;6746;50.892;4.064;2022-10-22T02:50:06;13.90;99.90
13354;DHT22;6746;50.892;4.064;2022-10-22T02:52:47;13.90;99.90
13354;DHT22;6746;50.892;4.064;2022-10-22T02:55:25;13.80;99.90
13354;DHT22;6746;50.892;4.064;2022-10-22T02:58:05;13.80;99.90
13354;DHT22;6746;50.892;4.064;2022-10-22T03:00:43;13.80;99.90
13354;DHT22;6746;50.892;4.064;2022-10-22T03:03:24;13.80;99.90
13354;DHT22;6746;50.892;4.064;2022-10-22T03:06:02;13.80;99.90
13354;DHT22;6746;50.892;4.064;2022-10-22T03:08:50;13.80;99.90
13354;DHT22;6746;50.892;4.064;2022-10-22T03:11:30;13.80;99.90
13354;DHT22;6746;50.892;4.064;2022-10-22T03:14:08;13.80;99.90
13354;DHT22;6746;50.892;4.064;2022-10-22T03:16:56;13.80;99.90
13354;DHT22;6746;50.892;4.064;2022-10-22T03:19:44;13.80;99.90
13354;DHT22;6746;50.892;4.064;2022-10-22T03:22:32;13.90;99.90
13354;DHT22;6746;50.892;4.064;2022-10-22T03:25:21;13.90;99.90
13354;DHT22;6746;50.892;4.064;2022-10-22T03:27:58;13.90;99.90
13354;DHT22;6746;50.892;4.064;2022-10-22T03:30:36;14.00;99.90
13354;DHT22;6746;50.892;4.064;2022-10-22T03:33:14;14.00;99.90
13354;DHT22;6746;50.892;4.064;2022-10-22T03:35:55;14.00;99.90
13354;DHT22;6746;50.892;4.064;2022-10-22T03:38:34;14.00;99.90
13354;DHT22;6746;50.892;4.064;2022-10-22T03:41:20;14.00;99.90
13354;DHT22;6746;50.892;4.064;2022-10-22T03:44:08;14.00;99.90
13354;DHT22;6746;50.892;4.064;2022-10-22T03:46:56;13.90;99.90
13354;DHT22;6746;50.892;4.064;2022-10-22T03:49:44;13.90;99.90
13354;DHT22;6746;50.892;4.064;2022-10-22T03:52:35;13.90;99.90
13354;DHT22;6746;50.892;4.064;2022-10-22T03:55:22;13.90;99.90
13354;DHT22;6746;50.892;4.064;2022-10-22T03:58:09;13.90;99.90
13354;DHT22;6746;50.892;4.064;2022-10-22T04:01:02;14.00;99.90
13354;DHT22;6746;50.892;4.064;2022-10-22T04:03:44;14.10;99.90
13354;DHT22;6746;50.892;4.064;2022-10-22T04:06:32;14.10;99.90
13354;DHT22;6746;50.892;4.064;2022-10-22T04:09:18;14.10;99.90
13354;DHT22;6746;50.892;4.064;2022-10-22T04:11:57;14.10;99.90
13354;DHT22;6746;50.892;4.064;2022-10-22T04:14:40;14.10;99.90
13354;DHT22;6746;50.892;4.064;2022-10-22T04:17:18;14.10;99.90
13354;DHT22;6746;50.892;4.064;2022-10-22T04:20:05;14.00;99.90
13354;DHT22;6746;50.892;4.064;2022-10-22T04:22:53;14.00;99.90
13354;DHT22;6746;50.892;4.064;2022-10-22T04:25:41;14.00;99.90
13354;DHT22;6746;50.892;4.064;2022-10-22T04:28:29;13.90;99.90
13354;DHT22;6746;50.892;4.064;2022-10-22T04:31:18;13.90;99.90
13354;DHT22;6746;50.892;4.064;2022-10-22T04:34:04;13.90;99.90
13354;DHT22;6746;50.892;4.064;2022-10-22T04:36:52;13.80;99.90
13354;DHT22;6746;50.892;4.064;2022-10-22T04:39:40;13.90;99.90
13354;DHT22;6746;50.892;4.064;2022-10-22T04:42:27;13.90;99.90
13354;DHT22;6746;50.892;4.064;2022-10-22T04:45:15;13.90;99.90
13354;DHT22;6746;50.892;4.064;2022-10-22T04:48:03;13.90;99.90
13354;DHT22;6746;50.892;4.064;2022-10-22T04:50:44;13.90;99.90
13354;DHT22;6746;50.892;4.064;2022-10-22T04:53:22;13.90;99.90
13354;DHT22;6746;50.892;4.064;2022-10-22T04:59:01;13.90;99.90
13354;DHT22;6746;50.892;4.064;2022-10-22T05:01:45;13.90;99.90
13354;DHT22;6746;50.892;4.064;2022-10-22T05:04:23;13.90;99.90
13354;DHT22;6746;50.892;4.064;2022-10-22T05:07:04;13.90;99.90
13354;DHT22;6746;50.892;4.064;2022-10-22T05:09:42;13.90;99.90
13354;DHT22;6746;50.892;4.064;2022-10-22T05:12:22;13.90;99.90
13354;DHT22;6746;50.892;4.064;2022-10-22T05:15:01;13.90;99.90
13354;DHT22;6746;50.892;4.064;2022-10-22T05:17:41;14.00;99.90
13354;DHT22;6746;50.892;4.064;2022-10-22T05:20:19;14.10;99.90
13354;DHT22;6746;50.892;4.064;2022-10-22T05:23:07;14.20;99.90
13354;DHT22;6746;50.892;4.064;2022-10-22T05:25:55;14.20;99.90
13354;DHT22;6746;50.892;4.064;2022-10-22T05:28:38;14.20;99.90
13354;DHT22;6746;50.892;4.064;2022-10-22T05:31:16;14.10;99.90
13354;DHT22;6746;50.892;4.064;2022-10-22T05:33:54;14.10;99.90
13354;DHT22;6746;50.892;4.064;2022-10-22T05:36:32;14.10;99.90
13354;DHT22;6746;50.892;4.064;2022-10-22T05:39:13;14.10;99.90
13354;DHT22;6746;50.892;4.064;2022-10-22T05:41:51;14.10;99.90
13354;DHT22;6746;50.892;4.064;2022-10-22T05:44:31;14.20;99.90
13354;DHT22;6746;50.892;4.064;2022-10-22T05:47:09;14.30;99.90
13354;DHT22;6746;50.892;4.064;2022-10-22T05:49:50;14.40;99.90
13354;DHT22;6746;50.892;4.064;2022-10-22T05:52:28;14.40;99.90
13354;DHT22;6746;50.892;4.064;2022-10-22T05:55:11;14.50;99.90
13354;DHT22;6746;50.892;4.064;2022-10-22T05:57:49;14.50;99.90
13354;DHT22;6746;50.892;4.064;2022-10-22T06:00:30;14.60;99.90
13354;DHT22;6746;50.892;4.064;2022-10-22T06:03:08;14.60;99.90
13354;DHT22;6746;50.892;4.064;2022-10-22T06:05:55;14.60;99.90
13354;DHT22;6746;50.892;4.064;2022-10-22T06:08:44;14.70;99.90
13354;DHT22;6746;50.892;4.064;2022-10-22T06:11:31;14.70;99.90
13354;DHT22;6746;50.892;4.064;2022-10-22T06:14:20;14.80;99.90
13354;DHT22;6746;50.892;4.064;2022-10-22T06:16:58;14.80;99.90
13354;DHT22;6746;50.892;4.064;2022-10-22T06:19:40;14.80;99.90
13354;DHT22;6746;50.892;4.064;2022-10-22T06:22:27;14.80;99.90
13354;DHT22;6746;50.892;4.064;2022-10-22T06:25:09;14.80;99.90
13354;DHT22;6746;50.892;4.064;2022-10-22T06:27:42;14.80;99.90
13354;DHT22;6746;50.892;4.064;2022-10-22T06:30:10;14.80;99.90
13354;DHT22;6746;50.892;4.064;2022-10-22T06:32:49;14.80;99.90
13354;DHT22;6746;50.892;4.064;2022-10-22T06:35:27;14.80;99.90
13354;DHT22;6746;50.892;4.064;2022-10-22T06:38:05;14.80;99.90
13354;DHT22;6746;50.892;4.064;2022-10-22T06:40:37;14.80;99.90
13354;DHT22;6746;50.892;4.064;2022-10-22T06:43:09;14.80;99.90
13354;DHT22;6746;50.892;4.064;2022-10-22T06:45:39;14.80;99.90
13354;DHT22;6746;50.892;4.064;2022-10-22T06:48:08;14.90;99.90
13354;DHT22;6746;50.892;4.064;2022-10-22T06:50:39;14.90;99.90
13354;DHT22;6746;50.892;4.064;2022-10-22T06:53:08;14.90;99.90
13354;DHT22;6746;50.892;4.064;2022-10-22T06:55:40;14.90;99.90
13354;DHT22;6746;50.892;4.064;2022-10-22T06:58:10;14.90;99.90
13354;DHT22;6746;50.892;4.064;2022-10-22T07:00:39;14.90;99.90
13354;DHT22;6746;50.892;4.064;2022-10-22T07:03:10;14.90;99.90
13354;DHT22;6746;50.892;4.064;2022-10-22T07:05:47;14.90;99.90
13354;DHT22;6746;50.892;4.064;2022-10-22T07:08:16;14.90;99.90
13354;DHT22;6746;50.892;4.064;2022-10-22T07:10:54;14.90;99.90
13354;DHT22;6746;50.892;4.064;2022-10-22T07:13:25;14.90;99.90
13354;DHT22;6746;50.892;4.064;2022-10-22T07:15:56;14.80;99.90
13354;DHT22;6746;50.892;4.064;2022-10-22T07:18:33;14.80;99.90
13354;DHT22;6746;50.892;4.064;2022-10-22T07:21:01;14.80;99.90
13354;DHT22;6746;50.892;4.064;2022-10-22T07:23:33;14.80;99.90
13354;DHT22;6746;50.892;4.064;2022-10-22T07:26:02;14.70;99.90
13354;DHT22;6746;50.892;4.064;2022-10-22T07:28:40;14.70;99.90
13354;DHT22;6746;50.892;4.064;2022-10-22T07:31:18;14.80;99.90
13354;DHT22;6746;50.892;4.064;2022-10-22T07:33:56;14.80;99.90
13354;DHT22;6746;50.892;4.064;2022-10-22T07:36:34;15.00;99.90
13354;DHT22;6746;50.892;4.064;2022-10-22T07:39:12;15.10;99.90
13354;DHT22;6746;50.892;4.064;2022-10-22T07:41:46;15.10;99.90
13354;DHT22;6746;50.892;4.064;2022-10-22T07:44:17;15.20;99.90
13354;DHT22;6746;50.892;4.064;2022-10-22T07:46:53;15.20;99.90
13354;DHT22;6746;50.892;4.064;2022-10-22T07:49:22;15.30;99.90
13354;DHT22;6746;50.892;4.064;2022-10-22T07:52:00;15.40;99.90
13354;DHT22;6746;50.892;4.064;2022-10-22T07:54:38;15.40;99.90
13354;DHT22;6746;50.892;4.064;2022-10-22T07:57:07;15.50;99.90
13354;DHT22;6746;50.892;4.064;2022-10-22T07:59:38;15.60;99.90
13354;DHT22;6746;50.892;4.064;2022-10-22T08:02:17;15.60;99.90
13354;DHT22;6746;50.892;4.064;2022-10-22T08:04:48;15.60;99.90
13354;DHT22;6746;50.892;4.064;2022-10-22T08:07:19;15.60;99.90
13354;DHT22;6746;50.892;4.064;2022-10-22T08:09:48;15.50;99.90
13354;DHT22;6746;50.892;4.064;2022-10-22T08:12:17;15.50;99.90
13354;DHT22;6746;50.892;4.064;2022-10-22T08:14:55;15.60;99.90
13354;DHT22;6746;50.892;4.064;2022-10-22T08:17:34;15.90;99.90
13354;DHT22;6746;50.892;4.064;2022-10-22T08:20:05;16.10;99.90
13354;DHT22;6746;50.892;4.064;2022-10-22T08:22:36;16.20;99.90
13354;DHT22;6746;50.892;4.064;2022-10-22T08:25:15;16.30;99.90
13354;DHT22;6746;50.892;4.064;2022-10-22T08:27:53;16.50;99.90
13354;DHT22;6746;50.892;4.064;2022-10-22T08:30:31;16.60;99.90
13354;DHT22;6746;50.892;4.064;2022-10-22T08:33:09;16.60;99.90
13354;DHT22;6746;50.892;4.064;2022-10-22T08:35:48;16.70;99.90
13354;DHT22;6746;50.892;4.064;2022-10-22T08:38:35;16.80;99.90
13354;DHT22;6746;50.892;4.064;2022-10-22T08:41:11;16.80;99.90
13354;DHT22;6746;50.892;4.064;2022-10-22T08:49:00;16.40;99.90
13354;DHT22;6746;50.892;4.064;2022-10-22T08:51:35;16.30;99.90
13354;DHT22;6746;50.892;4.064;2022-10-22T09:00:15;16.50;99.90
13354;DHT22;6746;50.892;4.064;2022-10-22T09:06:23;16.90;99.90
13354;DHT22;6746;50.892;4.064;2022-10-22T09:08:49;17.00;99.90
13354;DHT22;6746;50.892;4.064;2022-10-22T09:11:31;17.10;99.90
13354;DHT22;6746;50.892;4.064;2022-10-22T09:14:03;17.30;99.90
13354;DHT22;6746;50.892;4.064;2022-10-22T09:17:04;17.30;99.90
13354;DHT22;6746;50.892;4.064;2022-10-22T09:25:17;17.70;99.90
13354;DHT22;6746;50.892;4.064;2022-10-22T09:27:47;17.70;99.90
13354;DHT22;6746;50.892;4.064;2022-10-22T09:30:23;17.80;99.90
13354;DHT22;6746;50.892;4.064;2022-10-22T09:35:58;18.10;99.90
13354;DHT22;6746;50.892;4.064;2022-10-22T09:38:40;18.40;99.90
13354;DHT22;6746;50.892;4.064;2022-10-22T09:41:10;18.30;99.90
13354;DHT22;6746;50.892;4.064;2022-10-22T09:43:39;18.20;99.90
13354;DHT22;6746;50.892;4.064;2022-10-22T09:46:18;18.30;99.90
13354;DHT22;6746;50.892;4.064;2022-10-22T09:59:47;18.20;99.90
13354;DHT22;6746;50.892;4.064;2022-10-22T10:02:24;18.20;99.90
13354;DHT22;6746;50.892;4.064;2022-10-22T10:04:54;18.30;99.90
13354;DHT22;6746;50.892;4.064;2022-10-22T10:07:29;18.40;99.90
13354;DHT22;6746;50.892;4.064;2022-10-22T10:09:53;18.40;99.90
13354;DHT22;6746;50.892;4.064;2022-10-22T10:12:41;18.40;99.90
13354;DHT22;6746;50.892;4.064;2022-10-22T10:24:08;18.20;99.90
13354;DHT22;6746;50.892;4.064;2022-10-22T10:29:55;18.20;99.90
13354;DHT22;6746;50.892;4.064;2022-10-22T10:32:47;18.00;99.90
13354;DHT22;6746;50.892;4.064;2022-10-22T10:35:21;18.00;99.90
13354;DHT22;6746;50.892;4.064;2022-10-22T10:40:38;17.90;99.90
13354;DHT22;6746;50.892;4.064;2022-10-22T10:49:08;17.90;99.90
13354;DHT22;6746;50.892;4.064;2022-10-22T10:52:59;18.10;99.90
13354;DHT22;6746;50.892;4.064;2022-10-22T11:00:40;18.90;99.90
13354;DHT22;6746;50.892;4.064;2022-10-22T11:06:16;19.10;99.90
13354;DHT22;6746;50.892;4.064;2022-10-22T11:08:56;19.30;99.90
13354;DHT22;6746;50.892;4.064;2022-10-22T11:11:47;19.40;99.90
13354;DHT22;6746;50.892;4.064;2022-10-22T11:14:28;19.20;99.90
13354;DHT22;6746;50.892;4.064;2022-10-22T11:17:05;19.20;99.90
13354;DHT22;6746;50.892;4.064;2022-10-22T11:22:40;19.20;99.90
13354;DHT22;6746;50.892;4.064;2022-10-22T11:27:56;19.40;99.90
13354;DHT22;6746;50.892;4.064;2022-10-22T11:30:31;19.60;99.90
13354;DHT22;6746;50.892;4.064;2022-10-22T11:33:03;19.60;99.90
13354;DHT22;6746;50.892;4.064;2022-10-22T11:35:37;19.50;99.90
13354;DHT22;6746;50.892;4.064;2022-10-22T11:38:07;19.40;99.90
13354;DHT22;6746;50.892;4.064;2022-10-22T11:40:53;19.30;99.90
13354;DHT22;6746;50.892;4.064;2022-10-22T11:43:50;19.00;99.90
13354;DHT22;6746;50.892;4.064;2022-10-22T11:51:44;18.70;99.90
13354;DHT22;6746;50.892;4.064;2022-10-22T11:54:28;18.70;99.90
13354;DHT22;6746;50.892;4.064;2022-10-22T11:57:20;18.80;99.90
13354;DHT22;6746;50.892;4.064;2022-10-22T11:59:58;18.90;99.90
13354;DHT22;6746;50.892;4.064;2022-10-22T12:02:41;19.00;99.90
13354;DHT22;6746;50.892;4.064;2022-10-22T12:05:31;19.30;99.90
13354;DHT22;6746;50.892;4.064;2022-10-22T12:08:13;19.40;99.90
13354;DHT22;6746;50.892;4.064;2022-10-22T12:17:07;19.30;99.90
13354;DHT22;6746;50.892;4.064;2022-10-22T12:19:50;19.00;99.90
13354;DHT22;6746;50.892;4.064;2022-10-22T12:22:22;19.00;99.90
13354;DHT22;6746;50.892;4.064;2022-10-22T12:24:59;18.90;99.90
13354;DHT22;6746;50.892;4.064;2022-10-22T12:27:26;19.10;99.90
13354;DHT22;6746;50.892;4.064;2022-10-22T12:30:29;19.10;99.90
13354;DHT22;6746;50.892;4.064;2022-10-22T12:32:56;19.20;99.90
13354;DHT22;6746;50.892;4.064;2022-10-22T12:35:25;19.30;99.90
13354;DHT22;6746;50.892;4.064;2022-10-22T12:37:57;19.50;99.90
13354;DHT22;6746;50.892;4.064;2022-10-22T12:40:28;19.50;99.90
13354;DHT22;6746;50.892;4.064;2022-10-22T12:45:44;19.70;99.90
13354;DHT22;6746;50.892;4.064;2022-10-22T12:48:23;19.70;99.90
13354;DHT22;6746;50.892;4.064;2022-10-22T12:50:59;19.60;99.90
13354;DHT22;6746;50.892;4.064;2022-10-22T12:53:31;19.60;99.90
13354;DHT22;6746;50.892;4.064;2022-10-22T12:56:06;19.60;99.90
13354;DHT22;6746;50.892;4.064;2022-10-22T12:58:44;19.50;99.90
13354;DHT22;6746;50.892;4.064;2022-10-22T13:01:14;19.70;99.90
13354;DHT22;6746;50.892;4.064;2022-10-22T13:03:44;19.80;99.90
13354;DHT22;6746;50.892;4.064;2022-10-22T13:06:24;19.60;99.90
13354;DHT22;6746;50.892;4.064;2022-10-22T13:08:56;19.60;99.90
13354;DHT22;6746;50.892;4.064;2022-10-22T13:11:48;19.60;99.90
13354;DHT22;6746;50.892;4.064;2022-10-22T13:14:29;19.50;99.90
13354;DHT22;6746;50.892;4.064;2022-10-22T13:17:04;19.50;99.90
13354;DHT22;6746;50.892;4.064;2022-10-22T13:22:32;19.60;99.90
13354;DHT22;6746;50.892;4.064;2022-10-22T13:27:44;19.70;99.90
13354;DHT22;6746;50.892;4.064;2022-10-22T13:30:20;19.80;99.90
13354;DHT22;6746;50.892;4.064;2022-10-22T13:32:58;19.90;99.90
13354;DHT22;6746;50.892;4.064;2022-10-22T13:35:28;20.00;99.90
13354;DHT22;6746;50.892;4.064;2022-10-22T13:37:56;20.00;99.90
13354;DHT22;6746;50.892;4.064;2022-10-22T13:40:34;19.90;99.90
13354;DHT22;6746;50.892;4.064;2022-10-22T13:43:07;20.00;99.90
13354;DHT22;6746;50.892;4.064;2022-10-22T13:45:35;20.00;99.90
13354;DHT22;6746;50.892;4.064;2022-10-22T13:48:14;20.00;99.90
13354;DHT22;6746;50.892;4.064;2022-10-22T13:50:52;20.10;99.90
13354;DHT22;6746;50.892;4.064;2022-10-22T13:53:30;20.20;99.90
13354;DHT22;6746;50.892;4.064;2022-10-22T13:56:19;20.30;99.90
13354;DHT22;6746;50.892;4.064;2022-10-22T13:58:56;20.30;99.90
13354;DHT22;6746;50.892;4.064;2022-10-22T14:01:39;20.40;99.90
13354;DHT22;6746;50.892;4.064;2022-10-22T14:04:09;20.50;99.90
13354;DHT22;6746;50.892;4.064;2022-10-22T14:06:41;20.50;99.90
13354;DHT22;6746;50.892;4.064;2022-10-22T14:09:12;20.40;99.90
13354;DHT22;6746;50.892;4.064;2022-10-22T14:11:48;20.40;99.90
13354;DHT22;6746;50.892;4.064;2022-10-22T14:14:24;20.20;99.90
13354;DHT22;6746;50.892;4.064;2022-10-22T14:16:53;20.00;99.90
13354;DHT22;6746;50.892;4.064;2022-10-22T14:19:22;19.90;99.90
13354;DHT22;6746;50.892;4.064;2022-10-22T14:22:00;19.80;99.90
13354;DHT22;6746;50.892;4.064;2022-10-22T14:24:34;19.60;99.90
13354;DHT22;6746;50.892;4.064;2022-10-22T14:27:02;19.50;99.90
13354;DHT22;6746;50.892;4.064;2022-10-22T14:29:50;19.40;99.90
13354;DHT22;6746;50.892;4.064;2022-10-22T14:32:25;19.50;99.90
13354;DHT22;6746;50.892;4.064;2022-10-22T14:35:03;19.50;99.90
13354;DHT22;6746;50.892;4.064;2022-10-22T14:37:34;19.50;99.90
13354;DHT22;6746;50.892;4.064;2022-10-22T14:40:03;19.50;99.90
13354;DHT22;6746;50.892;4.064;2022-10-22T14:42:42;19.60;99.90
13354;DHT22;6746;50.892;4.064;2022-10-22T14:45:23;19.50;99.90
13354;DHT22;6746;50.892;4.064;2022-10-22T14:48:10;19.50;99.90
13354;DHT22;6746;50.892;4.064;2022-10-22T14:50:44;19.40;99.90
13354;DHT22;6746;50.892;4.064;2022-10-22T14:53:12;19.40;99.90
13354;DHT22;6746;50.892;4.064;2022-10-22T14:55:42;19.40;99.90
13354;DHT22;6746;50.892;4.064;2022-10-22T14:58:10;19.40;99.90
13354;DHT22;6746;50.892;4.064;2022-10-22T15:00:50;19.20;99.90
13354;DHT22;6746;50.892;4.064;2022-10-22T15:03:28;19.20;99.90
13354;DHT22;6746;50.892;4.064;2022-10-22T15:06:06;19.10;99.90
13354;DHT22;6746;50.892;4.064;2022-10-22T15:08:45;19.10;99.90
13354;DHT22;6746;50.892;4.064;2022-10-22T15:11:33;19.00;99.90
13354;DHT22;6746;50.892;4.064;2022-10-22T15:14:11;18.90;99.90
13354;DHT22;6746;50.892;4.064;2022-10-22T15:16:49;18.90;99.90
13354;DHT22;6746;50.892;4.064;2022-10-22T15:19:28;18.80;99.90
13354;DHT22;6746;50.892;4.064;2022-10-22T15:22:06;18.80;99.90
13354;DHT22;6746;50.892;4.064;2022-10-22T15:24:44;18.70;99.90
13354;DHT22;6746;50.892;4.064;2022-10-22T15:27:12;18.70;99.90
13354;DHT22;6746;50.892;4.064;2022-10-22T15:29:44;18.70;99.90
13354;DHT22;6746;50.892;4.064;2022-10-22T15:32:13;18.70;99.90
13354;DHT22;6746;50.892;4.064;2022-10-22T15:34:48;18.60;99.90
13354;DHT22;6746;50.892;4.064;2022-10-22T15:37:19;18.60;99.90
13354;DHT22;6746;50.892;4.064;2022-10-22T15:39:48;18.60;99.90
13354;DHT22;6746;50.892;4.064;2022-10-22T15:42:27;18.60;99.90
13354;DHT22;6746;50.892;4.064;2022-10-22T15:44:58;18.60;99.90
13354;DHT22;6746;50.892;4.064;2022-10-22T15:47:27;18.60;99.90
13354;DHT22;6746;50.892;4.064;2022-10-22T15:50:06;18.50;99.90
13354;DHT22;6746;50.892;4.064;2022-10-22T15:52:44;18.50;99.90
13354;DHT22;6746;50.892;4.064;2022-10-22T15:55:15;18.40;99.90
13354;DHT22;6746;50.892;4.064;2022-10-22T15:57:46;18.40;99.90
13354;DHT22;6746;50.892;4.064;2022-10-22T16:00:17;18.30;99.90
13354;DHT22;6746;50.892;4.064;2022-10-22T16:02:48;18.20;99.90
13354;DHT22;6746;50.892;4.064;2022-10-22T16:05:20;18.10;99.90
13354;DHT22;6746;50.892;4.064;2022-10-22T16:07:50;18.00;99.90
13354;DHT22;6746;50.892;4.064;2022-10-22T16:10:26;17.90;99.90
13354;DHT22;6746;50.892;4.064;2022-10-22T16:12:57;17.80;99.90
13354;DHT22;6746;50.892;4.064;2022-10-22T16:15:35;17.70;99.90
13354;DHT22;6746;50.892;4.064;2022-10-22T16:18:04;17.60;99.90
13354;DHT22;6746;50.892;4.064;2022-10-22T16:20:37;17.60;99.90
13354;DHT22;6746;50.892;4.064;2022-10-22T16:23:05;17.50;99.90
13354;DHT22;6746;50.892;4.064;2022-10-22T16:25:41;17.40;99.90
13354;DHT22;6746;50.892;4.064;2022-10-22T16:28:18;17.40;99.90
13354;DHT22;6746;50.892;4.064;2022-10-22T16:30:49;17.30;99.90
13354;DHT22;6746;50.892;4.064;2022-10-22T16:33:26;17.30;99.90
13354;DHT22;6746;50.892;4.064;2022-10-22T16:35:57;17.30;99.90
13354;DHT22;6746;50.892;4.064;2022-10-22T16:38:28;17.30;99.90
13354;DHT22;6746;50.892;4.064;2022-10-22T16:41:10;17.30;99.90
13354;DHT22;6746;50.892;4.064;2022-10-22T16:43:34;17.30;99.90
13354;DHT22;6746;50.892;4.064;2022-10-22T16:46:03;17.20;99.90
13354;DHT22;6746;50.892;4.064;2022-10-22T16:48:45;17.20;99.90
13354;DHT22;6746;50.892;4.064;2022-10-22T16:51:19;17.10;99.90
13354;DHT22;6746;50.892;4.064;2022-10-22T16:53:56;17.00;99.90
13354;DHT22;6746;50.892;4.064;2022-10-22T16:56:44;16.90;99.90
13354;DHT22;6746;50.892;4.064;2022-10-22T16:59:32;16.80;99.90
13354;DHT22;6746;50.892;4.064;2022-10-22T17:02:14;16.70;99.90
13354;DHT22;6746;50.892;4.064;2022-10-22T17:04:52;16.60;99.90
13354;DHT22;6746;50.892;4.064;2022-10-22T17:07:35;16.40;99.90
13354;DHT22;6746;50.892;4.064;2022-10-22T17:10:13;16.30;99.90
13354;DHT22;6746;50.892;4.064;2022-10-22T17:13:01;16.30;99.90
13354;DHT22;6746;50.892;4.064;2022-10-22T17:15:39;16.30;99.90
13354;DHT22;6746;50.892;4.064;2022-10-22T17:18:17;16.20;99.90
13354;DHT22;6746;50.892;4.064;2022-10-22T17:20:55;16.20;99.90
13354;DHT22;6746;50.892;4.064;2022-10-22T17:23:33;16.10;99.90
13354;DHT22;6746;50.892;4.064;2022-10-22T17:26:20;16.10;99.90
13354;DHT22;6746;50.892;4.064;2022-10-22T17:28:58;16.00;99.90
13354;DHT22;6746;50.892;4.064;2022-10-22T17:31:36;16.00;99.90
13354;DHT22;6746;50.892;4.064;2022-10-22T17:34:15;16.00;99.90
13354;DHT22;6746;50.892;4.064;2022-10-22T17:36:52;16.00;99.90
13354;DHT22;6746;50.892;4.064;2022-10-22T17:39:31;16.00;99.90
13354;DHT22;6746;50.892;4.064;2022-10-22T17:42:16;16.00;99.90
13354;DHT22;6746;50.892;4.064;2022-10-22T17:44:54;15.90;99.90
13354;DHT22;6746;50.892;4.064;2022-10-22T17:47:42;15.90;99.90
13354;DHT22;6746;50.892;4.064;2022-10-22T17:50:30;15.90;99.90
13354;DHT22;6746;50.892;4.064;2022-10-22T17:53:18;15.90;99.90
13354;DHT22;6746;50.892;4.064;2022-10-22T17:56:08;15.90;99.90
13354;DHT22;6746;50.892;4.064;2022-10-22T17:58:55;15.90;99.90
13354;DHT22;6746;50.892;4.064;2022-10-22T18:01:38;15.80;99.90
13354;DHT22;6746;50.892;4.064;2022-10-22T18:04:18;15.80;99.90
13354;DHT22;6746;50.892;4.064;2022-10-22T18:06:55;15.80;99.90
13354;DHT22;6746;50.892;4.064;2022-10-22T18:09:33;15.80;99.90
13354;DHT22;6746;50.892;4.064;2022-10-22T18:12:12;15.70;99.90
13354;DHT22;6746;50.892;4.064;2022-10-22T18:14:50;15.60;99.90
13354;DHT22;6746;50.892;4.064;2022-10-22T18:17:28;15.60;99.90
13354;DHT22;6746;50.892;4.064;2022-10-22T18:20:07;15.50;99.90
13354;DHT22;6746;50.892;4.064;2022-10-22T18:22:48;15.50;99.90
13354;DHT22;6746;50.892;4.064;2022-10-22T18:25:26;15.40;99.90
13354;DHT22;6746;50.892;4.064;2022-10-22T18:28:04;15.40;99.90
13354;DHT22;6746;50.892;4.064;2022-10-22T18:30:42;15.40;99.90
13354;DHT22;6746;50.892;4.064;2022-10-22T18:33:20;15.30;99.90
13354;DHT22;6746;50.892;4.064;2022-10-22T18:36:08;15.30;99.90
13354;DHT22;6746;50.892;4.064;2022-10-22T18:38:39;15.30;99.90
13354;DHT22;6746;50.892;4.064;2022-10-22T18:41:18;15.30;99.90
13354;DHT22;6746;50.892;4.064;2022-10-22T18:44:00;15.20;99.90
13354;DHT22;6746;50.892;4.064;2022-10-22T18:46:37;15.20;99.90
13354;DHT22;6746;50.892;4.064;2022-10-22T18:49:25;15.20;99.90
13354;DHT22;6746;50.892;4.064;2022-10-22T18:52:13;15.20;99.90
13354;DHT22;6746;50.892;4.064;2022-10-22T18:55:01;15.20;99.90
13354;DHT22;6746;50.892;4.064;2022-10-22T18:57:49;15.10;99.90